createdAt,value
2023-03-27T00:01:08.497Z,51.20
2023-03-27T00:03:35.218Z,51.23
2023-03-27T00:06:01.885Z,51.21
2023-03-27T00:08:28.499Z,51.20
2023-03-27T00:10:55.428Z,51.20
2023-03-27T00:13:22.229Z,51.21
2023-03-27T00:15:48.850Z,51.29
2023-03-27T00:18:15.508Z,51.23
2023-03-27T00:20:42.135Z,51.24
2023-03-27T00:23:09.001Z,51.21
2023-03-27T00:25:35.639Z,51.18
2023-03-27T00:28:02.276Z,51.23
2023-03-27T00:30:28.896Z,51.21
2023-03-27T00:32:55.612Z,51.23
2023-03-27T00:35:22.286Z,51.19
2023-03-27T00:37:48.952Z,51.21
2023-03-27T00:40:15.793Z,51.20
2023-03-27T00:42:42.417Z,51.24
2023-03-27T00:45:09.060Z,51.22
2023-03-27T00:47:35.750Z,51.21
2023-03-27T00:50:02.383Z,51.19
2023-03-27T00:52:29.042Z,51.21
2023-03-27T00:54:55.656Z,51.19
2023-03-27T00:57:22.274Z,51.19
2023-03-27T00:59:48.892Z,51.25
2023-03-27T01:02:15.548Z,51.19
2023-03-27T01:04:42.192Z,51.23
2023-03-27T01:07:08.797Z,51.17
2023-03-27T01:09:35.406Z,51.22
2023-03-27T01:12:02.026Z,51.13
2023-03-27T01:14:28.666Z,51.17
2023-03-27T01:16:55.281Z,51.20
2023-03-27T01:19:21.892Z,51.18
2023-03-27T01:21:48.722Z,51.18
2023-03-27T01:24:15.339Z,51.18
2023-03-27T01:26:42.156Z,51.17
2023-03-27T01:29:08.765Z,51.12
2023-03-27T01:31:35.671Z,51.18
2023-03-27T01:34:02.335Z,51.22
2023-03-27T01:36:28.962Z,51.19
2023-03-27T01:38:55.581Z,51.20
2023-03-27T01:41:22.439Z,51.16
2023-03-27T01:43:49.102Z,51.17
2023-03-27T01:46:15.958Z,51.21
2023-03-27T01:48:42.587Z,51.17
2023-03-27T01:51:09.214Z,51.16
2023-03-27T01:53:35.845Z,51.14
2023-03-27T01:56:02.483Z,51.14
2023-03-27T01:58:29.489Z,51.20
2023-03-27T02:00:56.124Z,51.18
2023-03-27T02:03:22.813Z,51.19
2023-03-27T02:05:49.438Z,51.14
2023-03-27T02:08:16.058Z,51.11
2023-03-27T02:10:42.684Z,51.14
2023-03-27T02:13:09.295Z,51.16
2023-03-27T02:15:36.112Z,51.13
2023-03-27T02:18:02.756Z,51.10
2023-03-27T02:20:29.644Z,51.18
2023-03-27T02:22:56.267Z,51.09
2023-03-27T02:25:22.889Z,51.12
2023-03-27T02:27:49.513Z,51.18
2023-03-27T02:30:16.161Z,51.16
2023-03-27T02:32:42.956Z,51.14
2023-03-27T02:35:09.646Z,51.14
2023-03-27T02:37:36.263Z,51.06
2023-03-27T02:40:02.887Z,51.13
2023-03-27T02:42:32.443Z,51.09
2023-03-27T02:44:59.067Z,51.07
2023-03-27T02:47:25.718Z,51.12
2023-03-27T02:49:52.387Z,51.07
2023-03-27T02:52:19.011Z,51.15
2023-03-27T02:54:45.846Z,51.13
2023-03-27T02:57:12.494Z,51.10
2023-03-27T02:59:39.131Z,51.09
2023-03-27T03:02:05.798Z,51.12
2023-03-27T03:04:32.452Z,51.02
2023-03-27T03:06:59.163Z,51.10
2023-03-27T03:09:25.793Z,51.05
2023-03-27T03:11:52.619Z,51.04
2023-03-27T03:14:19.242Z,51.12
2023-03-27T03:16:45.944Z,51.08
2023-03-27T03:19:12.584Z,51.05
2023-03-27T03:21:39.201Z,51.07
2023-03-27T03:24:06.031Z,51.08
2023-03-27T03:26:32.644Z,51.05
2023-03-27T03:28:59.824Z,51.04
2023-03-27T03:31:28.162Z,51.04
2023-03-27T03:33:54.799Z,50.97
2023-03-27T03:36:21.430Z,51.05
2023-03-27T03:38:48.070Z,51.01
2023-03-27T03:41:14.696Z,51.05
2023-03-27T03:43:41.314Z,51.11
2023-03-27T03:46:08.185Z,50.98
2023-03-27T03:48:35.058Z,51.07
2023-03-27T03:51:01.904Z,51.04
2023-03-27T03:53:28.528Z,51.06
2023-03-27T03:55:55.153Z,51.04
2023-03-27T03:58:21.780Z,51.06
2023-03-27T04:01:01.874Z,51.00
2023-03-27T04:03:28.616Z,51.05
2023-03-27T04:05:55.320Z,50.88
2023-03-27T04:08:21.939Z,50.92
2023-03-27T04:10:48.564Z,50.90
2023-03-27T04:13:15.178Z,50.99
2023-03-27T04:15:41.822Z,50.95
2023-03-27T04:18:08.676Z,50.95
2023-03-27T04:20:35.707Z,50.92
2023-03-27T04:23:02.340Z,50.88
2023-03-27T04:25:29.026Z,50.89
2023-03-27T04:27:55.645Z,50.90
2023-03-27T04:30:22.271Z,50.83
2023-03-27T04:32:48.975Z,50.83
2023-03-27T04:35:15.619Z,50.90
2023-03-27T04:37:42.224Z,50.83
2023-03-27T04:40:08.833Z,50.85
2023-03-27T04:42:35.441Z,50.76
2023-03-27T04:45:02.074Z,50.93
2023-03-27T04:47:28.721Z,50.84
2023-03-27T04:49:55.343Z,50.88
2023-03-27T04:52:21.973Z,50.87
2023-03-27T04:54:48.592Z,50.87
2023-03-27T04:57:15.276Z,50.87
2023-03-27T04:59:41.929Z,50.83
2023-03-27T05:02:08.608Z,50.88
2023-03-27T05:04:35.230Z,50.86
2023-03-27T05:07:01.858Z,50.90
2023-03-27T05:09:28.481Z,50.83
2023-03-27T05:11:55.124Z,50.84
2023-03-27T05:14:21.747Z,50.84
2023-03-27T05:16:48.440Z,50.88
2023-03-27T05:19:15.076Z,50.82
2023-03-27T05:21:41.715Z,50.75
2023-03-27T05:24:08.331Z,50.63
2023-03-27T05:26:36.076Z,50.76
2023-03-27T05:29:03.984Z,50.74
2023-03-27T05:31:30.625Z,50.78
2023-03-27T05:33:57.283Z,50.73
2023-03-27T05:36:23.889Z,50.75
2023-03-27T05:38:50.525Z,50.74
2023-03-27T05:41:17.396Z,50.75
2023-03-27T05:43:44.007Z,50.70
2023-03-27T05:46:10.633Z,50.71
2023-03-27T05:48:37.370Z,50.76
2023-03-27T05:51:04.012Z,50.68
2023-03-27T05:53:30.642Z,50.77
2023-03-27T05:56:02.924Z,50.75
2023-03-27T05:58:30.221Z,50.68
2023-03-27T06:00:56.989Z,50.72
2023-03-27T06:03:24.015Z,50.68
2023-03-27T06:05:50.691Z,50.65
2023-03-27T06:08:17.353Z,50.71
2023-03-27T06:10:43.972Z,50.66
2023-03-27T06:13:12.202Z,50.70
2023-03-27T06:15:39.162Z,50.65
2023-03-27T06:18:05.847Z,50.61
2023-03-27T06:20:32.536Z,50.66
2023-03-27T06:22:59.148Z,50.58
2023-03-27T06:25:25.759Z,50.68
2023-03-27T06:27:52.382Z,50.63
2023-03-27T06:30:19.020Z,50.62
2023-03-27T06:32:45.860Z,50.66
2023-03-27T06:35:12.503Z,50.61
2023-03-27T06:37:39.118Z,50.62
2023-03-27T06:40:05.727Z,50.57
2023-03-27T06:42:32.362Z,50.63
2023-03-27T06:44:58.976Z,50.43
2023-03-27T06:47:25.615Z,50.59
2023-03-27T06:49:52.289Z,50.49
2023-03-27T06:52:18.916Z,50.43
2023-03-27T06:54:45.546Z,50.59
2023-03-27T06:57:12.209Z,50.48
2023-03-27T06:59:38.850Z,50.51
2023-03-27T07:02:05.583Z,50.56
2023-03-27T07:04:32.249Z,50.54
2023-03-27T07:06:58.865Z,50.44
2023-03-27T07:09:25.496Z,50.48
2023-03-27T07:11:52.126Z,50.49
2023-03-27T07:14:18.776Z,50.45
2023-03-27T07:16:45.447Z,50.40
2023-03-27T07:19:12.113Z,50.42
2023-03-27T07:21:38.736Z,50.38
2023-03-27T07:24:05.354Z,50.32
2023-03-27T07:26:31.980Z,50.35
2023-03-27T07:29:00.176Z,50.39
2023-03-27T07:31:41.980Z,50.37
2023-03-27T07:34:13.971Z,50.40
2023-03-27T07:36:40.705Z,50.40
2023-03-27T07:39:07.338Z,50.40
2023-03-27T07:41:33.949Z,50.37
2023-03-27T07:44:00.572Z,50.26
2023-03-27T07:46:27.203Z,50.08
2023-03-27T07:48:53.822Z,50.09
2023-03-27T07:51:20.443Z,50.03
2023-03-27T07:53:47.064Z,50.14
2023-03-27T07:56:13.679Z,50.14
2023-03-27T07:58:40.399Z,49.98
2023-03-27T08:01:07.058Z,50.09
2023-03-27T08:03:33.810Z,50.01
2023-03-27T08:06:00.770Z,49.89
2023-03-27T08:08:27.483Z,49.85
2023-03-27T08:10:54.110Z,49.94
2023-03-27T08:13:20.756Z,50.01
2023-03-27T08:15:47.383Z,49.93
2023-03-27T08:18:14.102Z,50.05
2023-03-27T08:20:40.743Z,49.99
2023-03-27T08:23:07.373Z,49.89
2023-03-27T08:25:33.996Z,49.83
2023-03-27T08:28:00.604Z,49.76
2023-03-27T08:30:27.217Z,49.97
2023-03-27T08:32:53.905Z,49.87
2023-03-27T08:35:20.584Z,49.98
2023-03-27T08:37:47.213Z,49.96
2023-03-27T08:40:13.866Z,49.96
2023-03-27T08:42:40.543Z,49.91
2023-03-27T08:45:07.160Z,49.90
2023-03-27T08:47:33.807Z,49.84
2023-03-27T08:50:00.473Z,49.87
2023-03-27T08:52:27.112Z,49.80
2023-03-27T08:54:53.738Z,49.87
2023-03-27T08:57:20.385Z,49.88
2023-03-27T08:59:47.054Z,49.76
2023-03-27T09:02:13.720Z,49.78
2023-03-27T09:04:40.356Z,49.76
2023-03-27T09:07:06.990Z,49.84
2023-03-27T09:09:33.613Z,49.86
2023-03-27T09:12:00.375Z,49.89
2023-03-27T09:14:27.212Z,49.94
2023-03-27T09:16:53.826Z,49.90
2023-03-27T09:19:20.465Z,49.66
2023-03-27T09:21:47.325Z,49.75
2023-03-27T09:24:13.946Z,49.69
2023-03-27T09:26:40.562Z,49.67
2023-03-27T09:29:07.176Z,49.56
2023-03-27T09:31:34.943Z,49.64
2023-03-27T09:34:01.704Z,49.55
2023-03-27T09:36:28.347Z,49.67
2023-03-27T09:38:55.198Z,49.73
2023-03-27T09:41:21.818Z,49.72
2023-03-27T09:43:48.433Z,49.62
2023-03-27T09:46:15.094Z,49.61
2023-03-27T09:48:41.729Z,49.64
2023-03-27T09:51:08.581Z,49.60
2023-03-27T09:53:35.202Z,49.75
2023-03-27T09:56:03.011Z,49.71
2023-03-27T09:58:29.986Z,49.66
2023-03-27T10:00:56.807Z,49.77
2023-03-27T10:03:23.634Z,49.63
2023-03-27T10:05:50.305Z,49.55
2023-03-27T10:08:16.915Z,49.60
2023-03-27T10:10:43.557Z,49.66
2023-03-27T10:13:10.235Z,49.71
2023-03-27T10:15:36.875Z,49.66
2023-03-27T10:18:03.509Z,49.62
2023-03-27T10:20:30.172Z,49.69
2023-03-27T10:22:56.831Z,49.59
2023-03-27T10:25:23.454Z,49.56
2023-03-27T10:27:50.061Z,49.52
2023-03-27T10:30:16.695Z,49.58
2023-03-27T10:32:43.545Z,49.46
2023-03-27T10:35:10.173Z,49.54
2023-03-27T10:37:36.822Z,49.53
2023-03-27T10:40:03.490Z,49.45
2023-03-27T10:42:30.100Z,49.62
2023-03-27T10:44:56.713Z,49.55
2023-03-27T10:47:23.363Z,49.48
2023-03-27T10:49:49.992Z,49.50
2023-03-27T10:52:16.612Z,49.39
2023-03-27T10:54:43.274Z,49.38
2023-03-27T10:57:10.043Z,49.35
2023-03-27T10:59:41.438Z,49.29
2023-03-27T11:02:09.871Z,49.49
2023-03-27T11:04:36.796Z,49.45
2023-03-27T11:07:03.405Z,49.61
2023-03-27T11:09:30.013Z,49.49
2023-03-27T11:11:56.636Z,49.44
2023-03-27T11:14:23.428Z,49.54
2023-03-27T11:16:50.242Z,49.45
2023-03-27T11:19:17.050Z,49.43
2023-03-27T11:21:43.692Z,49.54
2023-03-27T11:24:10.309Z,49.44
2023-03-27T11:26:36.929Z,49.37
2023-03-27T11:29:03.588Z,49.52
2023-03-27T11:31:30.224Z,49.45
2023-03-27T11:33:56.859Z,49.49
2023-03-27T11:36:23.486Z,49.53
2023-03-27T11:38:50.116Z,49.52
2023-03-27T11:41:16.976Z,49.60
2023-03-27T11:43:43.646Z,49.49
2023-03-27T11:46:10.310Z,49.38
2023-03-27T11:48:36.943Z,49.43
2023-03-27T11:51:03.556Z,49.40
2023-03-27T11:53:30.194Z,49.47
2023-03-27T11:55:56.830Z,49.48
2023-03-27T11:58:23.502Z,49.39
2023-03-27T12:00:50.254Z,49.44
2023-03-27T12:03:16.969Z,49.36
2023-03-27T12:05:43.693Z,49.38
2023-03-27T12:08:10.270Z,49.36
2023-03-27T12:10:36.910Z,49.34
2023-03-27T12:13:03.741Z,49.32
2023-03-27T12:15:30.360Z,49.29
2023-03-27T12:17:57.026Z,49.29
2023-03-27T12:20:23.707Z,49.41
2023-03-27T12:22:50.327Z,49.28
2023-03-27T12:25:17.222Z,49.31
2023-03-27T12:27:43.837Z,49.37
2023-03-27T12:30:10.462Z,49.14
2023-03-27T12:32:37.138Z,49.20
2023-03-27T12:35:03.783Z,49.29
2023-03-27T12:37:30.400Z,49.26
2023-03-27T12:39:57.024Z,49.27
2023-03-27T12:42:23.642Z,49.24
2023-03-27T12:44:50.261Z,49.25
2023-03-27T12:47:16.874Z,49.27
2023-03-27T12:49:47.463Z,49.28
2023-03-27T12:52:15.243Z,49.27
2023-03-27T12:54:41.868Z,49.24
2023-03-27T12:57:08.589Z,49.25
2023-03-27T12:59:35.300Z,49.23
2023-03-27T13:02:02.013Z,49.21
2023-03-27T13:04:28.664Z,49.22
2023-03-27T13:06:55.287Z,49.28
2023-03-27T13:09:22.124Z,49.14
2023-03-27T13:11:48.736Z,49.14
2023-03-27T13:14:15.352Z,49.24
2023-03-27T13:16:41.961Z,49.20
2023-03-27T13:19:08.575Z,49.17
2023-03-27T13:21:36.050Z,49.24
2023-03-27T13:24:03.277Z,49.15
2023-03-27T13:26:29.904Z,49.21
2023-03-27T13:28:56.530Z,49.17
2023-03-27T13:31:23.215Z,49.20
2023-03-27T13:33:49.848Z,49.15
2023-03-27T13:36:16.761Z,49.16
2023-03-27T13:38:43.416Z,49.14
2023-03-27T13:41:10.024Z,49.07
2023-03-27T13:43:36.633Z,49.10
2023-03-27T13:46:03.249Z,49.26
2023-03-27T13:48:29.863Z,49.16
2023-03-27T13:50:56.475Z,49.22
2023-03-27T13:53:23.885Z,49.19
2023-03-27T13:55:50.697Z,49.10
2023-03-27T13:58:17.524Z,49.10
2023-03-27T14:00:44.132Z,48.72
2023-03-27T14:03:10.894Z,48.38
2023-03-27T14:05:37.643Z,47.98
2023-03-27T14:08:04.256Z,47.76
2023-03-27T14:10:30.877Z,47.65
2023-03-27T14:12:57.496Z,47.27
2023-03-27T14:15:24.354Z,47.61
2023-03-27T14:17:51.004Z,47.80
2023-03-27T14:20:17.667Z,48.06
2023-03-27T14:22:44.288Z,47.98
2023-03-27T14:25:10.902Z,46.96
2023-03-27T14:27:37.527Z,46.46
2023-03-27T14:30:04.136Z,46.45
2023-03-27T14:32:30.788Z,46.52
2023-03-27T14:34:57.404Z,47.28
2023-03-27T14:37:24.012Z,47.62
2023-03-27T14:39:50.624Z,47.46
2023-03-27T14:42:17.237Z,47.60
2023-03-27T14:44:43.934Z,47.83
2023-03-27T14:47:10.545Z,47.88
2023-03-27T14:49:37.207Z,47.98
2023-03-27T14:52:03.831Z,48.13
2023-03-27T14:54:31.348Z,48.08
2023-03-27T14:57:01.606Z,48.19
2023-03-27T14:59:28.239Z,48.16
2023-03-27T15:01:54.878Z,48.22
2023-03-27T15:04:21.505Z,48.31
2023-03-27T15:06:48.123Z,48.31
2023-03-27T15:09:14.741Z,48.40
2023-03-27T15:11:41.361Z,48.40
2023-03-27T15:14:07.964Z,48.33
2023-03-27T15:16:34.629Z,48.37
2023-03-27T15:19:01.252Z,48.42
2023-03-27T15:21:27.828Z,48.50
2023-03-27T15:23:54.478Z,48.41
2023-03-27T15:26:21.159Z,48.51
2023-03-27T15:28:48.014Z,48.52
2023-03-27T15:31:14.691Z,48.49
2023-03-27T15:33:41.383Z,48.58
2023-03-27T15:36:08.043Z,48.50
2023-03-27T15:38:34.677Z,48.55
2023-03-27T15:41:01.297Z,48.51
2023-03-27T15:43:27.911Z,48.52
2023-03-27T15:45:54.796Z,48.59
2023-03-27T15:48:21.492Z,48.61
2023-03-27T15:50:48.120Z,48.58
2023-03-27T15:53:14.760Z,48.56
2023-03-27T15:55:41.377Z,48.64
2023-03-27T15:58:07.995Z,48.61
2023-03-27T16:00:34.611Z,48.70
2023-03-27T16:03:01.350Z,48.65
2023-03-27T16:05:28.030Z,48.69
2023-03-27T16:07:54.652Z,48.71
2023-03-27T16:10:21.259Z,48.78
2023-03-27T16:12:47.892Z,48.75
2023-03-27T16:15:14.516Z,48.79
2023-03-27T16:17:41.375Z,48.90
2023-03-27T16:20:08.016Z,48.76
2023-03-27T16:22:34.659Z,48.83
2023-03-27T16:25:01.289Z,48.82
2023-03-27T16:27:27.919Z,48.75
2023-03-27T16:29:54.537Z,48.86
2023-03-27T16:32:21.157Z,48.82
2023-03-27T16:34:47.988Z,48.89
2023-03-27T16:37:14.600Z,48.86
2023-03-27T16:39:41.221Z,48.84
2023-03-27T16:42:07.853Z,48.86
2023-03-27T16:44:34.530Z,48.87
2023-03-27T16:47:01.156Z,48.93
2023-03-27T16:49:28.015Z,48.89
2023-03-27T16:51:54.880Z,48.94
2023-03-27T16:54:21.508Z,48.94
2023-03-27T16:56:48.146Z,48.97
2023-03-27T16:59:14.774Z,48.91
2023-03-27T17:01:41.411Z,48.94
2023-03-27T17:04:08.057Z,48.94
2023-03-27T17:06:34.684Z,49.00
2023-03-27T17:09:01.533Z,48.97
2023-03-27T17:11:28.146Z,48.98
2023-03-27T17:13:54.747Z,48.98
2023-03-27T17:16:21.399Z,49.02
2023-03-27T17:18:48.053Z,48.98
2023-03-27T17:21:14.669Z,48.98
2023-03-27T17:23:41.275Z,49.06
2023-03-27T17:26:10.051Z,49.02
2023-03-27T17:28:38.760Z,49.03
2023-03-27T17:31:05.769Z,49.02
2023-03-27T17:33:32.703Z,49.09
2023-03-27T17:35:59.655Z,49.03
2023-03-27T17:38:26.491Z,49.03
2023-03-27T17:40:53.120Z,49.04
2023-03-27T17:43:19.747Z,49.09
2023-03-27T17:45:46.382Z,49.09
2023-03-27T17:48:13.029Z,49.06
2023-03-27T17:50:39.665Z,49.07
2023-03-27T17:53:06.268Z,49.09
2023-03-27T17:55:32.883Z,49.12
2023-03-27T17:58:08.956Z,49.06
2023-03-27T18:00:36.517Z,49.08
2023-03-27T18:03:03.232Z,49.11
2023-03-27T18:05:29.892Z,49.11
2023-03-27T18:07:56.740Z,49.12
2023-03-27T18:10:23.360Z,49.09
2023-03-27T18:12:49.980Z,49.16
2023-03-27T18:15:16.804Z,49.09
2023-03-27T18:17:43.700Z,49.16
2023-03-27T18:20:10.318Z,49.11
2023-03-27T18:22:36.943Z,49.15
2023-03-27T18:25:03.583Z,49.07
2023-03-27T18:27:30.193Z,49.07
2023-03-27T18:29:57.539Z,49.11
2023-03-27T18:32:24.231Z,49.13
2023-03-27T18:34:50.919Z,49.12
2023-03-27T18:37:17.529Z,49.11
2023-03-27T18:39:44.136Z,49.06
2023-03-27T18:42:10.771Z,49.11
2023-03-27T18:44:37.433Z,49.04
2023-03-27T18:47:04.066Z,49.02
2023-03-27T18:49:30.693Z,49.11
2023-03-27T18:51:57.346Z,49.07
2023-03-27T18:54:23.955Z,49.13
2023-03-27T18:56:50.602Z,49.12
2023-03-27T18:59:17.234Z,49.14
2023-03-27T19:01:43.845Z,49.06
2023-03-27T19:04:10.507Z,49.06
2023-03-27T19:06:37.197Z,49.08
2023-03-27T19:09:03.843Z,49.04
2023-03-27T19:11:30.483Z,49.08
2023-03-27T19:13:57.109Z,48.99
2023-03-27T19:16:23.749Z,49.07
2023-03-27T19:18:50.367Z,49.02
2023-03-27T19:21:16.985Z,49.03
2023-03-27T19:23:43.624Z,49.00
2023-03-27T19:26:10.335Z,48.98
2023-03-27T19:28:37.725Z,48.94
2023-03-27T19:31:04.392Z,48.93
2023-03-27T19:33:31.022Z,48.97
2023-03-27T19:35:57.664Z,48.95
2023-03-27T19:38:24.327Z,48.88
2023-03-27T19:40:50.935Z,48.97
2023-03-27T19:43:17.552Z,48.91
2023-03-27T19:45:44.185Z,48.91
2023-03-27T19:48:10.855Z,48.89
2023-03-27T19:50:37.526Z,48.88
2023-03-27T19:53:08.840Z,48.94
2023-03-27T19:55:35.892Z,48.94
2023-03-27T19:58:02.536Z,48.94
2023-03-27T20:00:31.421Z,48.88
2023-03-27T20:02:58.407Z,48.91
2023-03-27T20:05:25.141Z,48.86
2023-03-27T20:07:51.752Z,48.96
2023-03-27T20:10:18.600Z,48.90
2023-03-27T20:12:45.753Z,48.91
2023-03-27T20:15:12.804Z,48.88
2023-03-27T20:17:39.636Z,48.91
2023-03-27T20:20:06.232Z,48.89
2023-03-27T20:22:35.041Z,48.96
2023-03-27T20:25:05.311Z,48.96
2023-03-27T20:27:31.942Z,48.90
2023-03-27T20:29:58.564Z,48.91
2023-03-27T20:32:25.467Z,48.95
2023-03-27T20:34:52.916Z,48.87
2023-03-27T20:37:19.557Z,48.84
2023-03-27T20:39:46.163Z,48.89
2023-03-27T20:42:12.777Z,48.86
2023-03-27T20:44:39.610Z,48.87
2023-03-27T20:47:06.265Z,48.80
2023-03-27T20:49:40.811Z,48.83
2023-03-27T20:52:08.197Z,48.69
2023-03-27T20:54:35.029Z,48.77
2023-03-27T20:57:01.709Z,48.69
2023-03-27T20:59:28.346Z,48.80
2023-03-27T21:01:54.999Z,48.68
2023-03-27T21:04:21.630Z,48.71
2023-03-27T21:06:48.242Z,48.68
2023-03-27T21:09:14.853Z,48.59
2023-03-27T21:11:41.470Z,48.64
2023-03-27T21:14:09.030Z,48.61
2023-03-27T21:16:35.666Z,48.72
2023-03-27T21:19:02.298Z,48.66
2023-03-27T21:21:28.935Z,48.70
2023-03-27T21:23:56.085Z,48.65
2023-03-27T21:26:22.734Z,48.64
2023-03-27T21:28:49.375Z,48.59
2023-03-27T21:31:16.252Z,48.65
2023-03-27T21:33:42.894Z,48.56
2023-03-27T21:36:09.664Z,48.66
2023-03-27T21:38:36.442Z,48.56
2023-03-27T21:41:03.273Z,48.61
2023-03-27T21:43:29.893Z,48.64
2023-03-27T21:45:56.588Z,48.65
2023-03-27T21:48:23.296Z,48.62
2023-03-27T21:50:49.976Z,48.66
2023-03-27T21:53:16.607Z,48.63
2023-03-27T21:55:43.221Z,48.63
2023-03-27T21:58:10.043Z,48.62
2023-03-27T22:00:36.806Z,48.63
2023-03-27T22:03:03.493Z,48.60
2023-03-27T22:05:30.151Z,48.64
2023-03-27T22:07:56.973Z,48.62
2023-03-27T22:10:24.402Z,48.66
2023-03-27T22:12:51.036Z,48.64
2023-03-27T22:15:17.659Z,48.67
2023-03-27T22:17:44.339Z,48.68
2023-03-27T22:20:10.988Z,48.65
2023-03-27T22:22:37.594Z,48.68
2023-03-27T22:25:04.437Z,48.68
2023-03-27T22:27:31.070Z,48.65
2023-03-27T22:29:57.941Z,48.62
2023-03-27T22:32:24.577Z,48.61
2023-03-27T22:34:51.204Z,48.70
2023-03-27T22:37:18.046Z,48.66
2023-03-27T22:39:44.678Z,48.69
2023-03-27T22:42:11.517Z,48.65
2023-03-27T22:44:38.137Z,48.69
2023-03-27T22:47:04.755Z,48.65
2023-03-27T22:49:31.587Z,48.70
2023-03-27T22:51:58.443Z,48.68
2023-03-27T22:54:25.361Z,48.71
2023-03-27T22:56:51.987Z,48.68
2023-03-27T22:59:18.616Z,48.66
2023-03-27T23:01:45.316Z,48.64
2023-03-27T23:04:11.975Z,48.68
2023-03-27T23:06:38.653Z,48.62
2023-03-27T23:09:05.329Z,48.67
2023-03-27T23:11:31.988Z,48.62
2023-03-27T23:13:58.626Z,48.58
2023-03-27T23:16:25.285Z,48.61
2023-03-27T23:18:51.907Z,48.57
2023-03-27T23:21:18.553Z,48.64
2023-03-27T23:23:45.179Z,48.62
2023-03-27T23:26:11.787Z,48.61
2023-03-27T23:28:38.392Z,48.63
2023-03-27T23:31:05.221Z,48.62
2023-03-27T23:33:31.852Z,48.57
2023-03-27T23:35:58.652Z,48.63
2023-03-27T23:38:25.438Z,48.59
2023-03-27T23:40:52.052Z,48.59
2023-03-27T23:43:18.686Z,48.61
2023-03-27T23:45:45.357Z,48.62
2023-03-27T23:48:12.015Z,48.57
2023-03-27T23:50:38.642Z,48.63
2023-03-27T23:53:05.283Z,48.58
2023-03-27T23:55:31.897Z,48.59
2023-03-27T23:57:58.522Z,48.50
